メインページ
METAR-TAF:

METAR-TAF

空港 :

ニノイ・アキノ国際空港

マニラ, フィリピン

緯度: 14-31N, 経度: 121-00E, 海抜: 14m

現時点の気象観測

当レポートは22分前の05:00(UTC)に作成
変向風 5kt
気温 31°C
湿度 75%
気圧 1012 hPa
視程10km以上
高度2300ftの雲はほとんどない
高度10000ftの千切れ雲あり

METAR: RPLL 200500Z VRB05KT 9999 FEW023 BKN100 31/26 Q1012 RESHRA NOSIG RMK A2988

時間: 13:22 (05:22 UTC)

予報

当レポートは6時間22分前の23:00(UTC)に作成
予報は20日の 00時(UTC)から 21日の 06時(UTC)まで有効
の風 5kt
視程10km以上
高度2500ftの雲はほとんどない
高度30000ftの雲は散在している
20日の 00時(UTC)から 20日の 06時(UTC)まで一時的に
東/北東の風 9kt
高度2500ftの雲はほとんどない
高度10000ftの雲は散在している
20日の 06時(UTC)から 20日の 12時(UTC)まで一時的に
東/南東の風 8kt
高度2200ftの雲はほとんどない, 積乱雲.
高度2300ftの雲はほとんどない
高度10000ftの千切れ雲あり

TAF: RPLL 192300Z 2000/2106 09005KT 9999 FEW025 SCT300 TX33/2006Z TN25/2021Z TEMPO 2000/2006 06009KT FEW025 SCT100 TEMPO 2006/2012 11008KT FEW022CB FEW023 BKN100

4,000以上の空港の気象観測と天気予報(METAR報とTAF報)

利用可能な観測所は地図上に黄色い丸と赤い丸で示す。

丸の上にカーソルを重ねると観測所名を参照できる。

次にクリックすると気象観測と天気予報を参照できる。

マップの切り替え:黒色「×」印の緑ボタンをクリックして拡大、「-」印の緑ボタンをクリックして縮小、緑色の三角印をクリックして隣りの地図に切り替え


METAR-TAF: